< < Back
Terminal Aerodrome Forecast


Current Version              Previous Versions:   1  2  3  4  5  6  7  8  9  

Terminal Aerodrome Forecast

756
FTUS42 KJAX 280230 AAA
TAFSSI
TAF AMD
KSSI 280230Z 2803/2824 07005KT P6SM VCSH SCT025 BKN120
     FM280800 07004KT P6SM VCTS SCT020CB BKN050
     FM281300 08007KT P6SM VCSH SCT020 BKN080
     FM281800 09011KT P6SM VCTS SCT040CB BKN250=



Latest METAR

603
SAUS70 KWBC 280500 RRF
MTRSSI
METAR KSSI 280453Z AUTO 09008KT 10SM CLR 27/22 A3000 RMK AO2 LTG DSNT SE
SLP160 T02720222 403000233


USA.gov is the U.S. government's official web portal to all federal, state and local government web resources and services.